KPNC

Ponca City Regional Airport

Ponca City, Oklahoma, USA
METAR KPNC 190853Z AUTO 19004KT 10SM CLR 25/19 A2991 RMK AO2 SLP113 T02500194 55003 TSNO $
Observed Flight Rules
Sep-19 @ 08:53 UTC (10 minutes ago) Visual Flight Rules
Wind Visibility Clouds
190° at 4 knots 10 miles
  • Clear skies
Temperatures Readings
Current 25°C / 77°F
Dewpoint 19°C / 66°F
Humidity 69%
Altimeter 29.91" Hg
Pressure 1011.3 hPa
Elevation 308
METAR KPNC 190853Z AUTO 19004KT 10SM CLR 25/19 A2991 RMK AO2 SLP113 T02500194 55003 TSNO $
Observed Flight Rules
Sep-19 @ 08:53 UTC
(10 minutes ago)
VFR
Wind Visibility
190° at 4 knots 10 miles
Clouds
  • Clear skies
Temperature Dewpoint
25°C / 77°F 19°C / 66°F
Humidity Altimeter Pressure
69% 29.91" Hg 1011.3 hPa